sensor_id;sensor_type;location;lat;lon;timestamp;P1;durP1;ratioP1;P2;durP2;ratioP2
67602;SDS011;54417;47.454;18.918;2023-05-07T00:00:24;8.88;;;7.60;;
67602;SDS011;54417;47.454;18.918;2023-05-07T00:05:33;8.48;;;6.68;;
67602;SDS011;54417;47.454;18.918;2023-05-07T00:10:43;12.23;;;7.03;;
67602;SDS011;54417;47.454;18.918;2023-05-07T00:15:51;10.50;;;7.17;;
67602;SDS011;54417;47.454;18.918;2023-05-07T00:21:00;8.75;;;6.53;;
67602;SDS011;54417;47.454;18.918;2023-05-07T00:26:10;7.65;;;6.35;;
67602;SDS011;54417;47.454;18.918;2023-05-07T00:31:20;8.95;;;7.13;;
67602;SDS011;54417;47.454;18.918;2023-05-07T00:36:29;7.32;;;6.45;;
67602;SDS011;54417;47.454;18.918;2023-05-07T00:41:39;6.72;;;5.65;;
67602;SDS011;54417;47.454;18.918;2023-05-07T00:46:48;9.60;;;6.63;;
67602;SDS011;54417;47.454;18.918;2023-05-07T00:51:57;8.13;;;6.05;;
67602;SDS011;54417;47.454;18.918;2023-05-07T00:57:09;6.67;;;6.07;;
67602;SDS011;54417;47.454;18.918;2023-05-07T01:07:27;7.47;;;6.47;;
67602;SDS011;54417;47.454;18.918;2023-05-07T01:12:38;8.32;;;6.90;;
67602;SDS011;54417;47.454;18.918;2023-05-07T01:17:48;7.50;;;6.63;;
67602;SDS011;54417;47.454;18.918;2023-05-07T01:23:05;8.50;;;7.18;;
67602;SDS011;54417;47.454;18.918;2023-05-07T01:28:15;8.68;;;6.70;;
67602;SDS011;54417;47.454;18.918;2023-05-07T01:33:24;8.02;;;6.25;;
67602;SDS011;54417;47.454;18.918;2023-05-07T01:38:40;9.65;;;6.10;;
67602;SDS011;54417;47.454;18.918;2023-05-07T01:43:44;8.70;;;5.82;;
67602;SDS011;54417;47.454;18.918;2023-05-07T01:48:55;8.57;;;6.55;;
67602;SDS011;54417;47.454;18.918;2023-05-07T01:54:05;7.90;;;6.15;;
67602;SDS011;54417;47.454;18.918;2023-05-07T01:59:15;6.57;;;5.63;;
67602;SDS011;54417;47.454;18.918;2023-05-07T02:04:24;7.20;;;5.78;;
67602;SDS011;54417;47.454;18.918;2023-05-07T02:09:30;7.88;;;6.47;;
67602;SDS011;54417;47.454;18.918;2023-05-07T02:14:33;8.35;;;6.20;;
67602;SDS011;54417;47.454;18.918;2023-05-07T02:19:42;6.32;;;5.68;;
67602;SDS011;54417;47.454;18.918;2023-05-07T02:24:52;11.95;;;6.35;;
67602;SDS011;54417;47.454;18.918;2023-05-07T02:30:01;5.57;;;5.07;;
67602;SDS011;54417;47.454;18.918;2023-05-07T02:35:11;7.75;;;5.30;;
67602;SDS011;54417;47.454;18.918;2023-05-07T02:40:21;5.30;;;4.80;;
67602;SDS011;54417;47.454;18.918;2023-05-07T02:45:30;5.17;;;4.67;;
67602;SDS011;54417;47.454;18.918;2023-05-07T02:50:40;8.57;;;5.23;;
67602;SDS011;54417;47.454;18.918;2023-05-07T02:55:53;5.88;;;5.28;;
67602;SDS011;54417;47.454;18.918;2023-05-07T03:01:02;6.63;;;5.68;;
67602;SDS011;54417;47.454;18.918;2023-05-07T03:06:22;10.80;;;6.10;;
67602;SDS011;54417;47.454;18.918;2023-05-07T03:11:32;6.18;;;5.57;;
67602;SDS011;54417;47.454;18.918;2023-05-07T03:16:41;8.55;;;6.07;;
67602;SDS011;54417;47.454;18.918;2023-05-07T03:21:44;6.25;;;5.55;;
67602;SDS011;54417;47.454;18.918;2023-05-07T03:26:55;7.05;;;5.47;;
67602;SDS011;54417;47.454;18.918;2023-05-07T03:32:05;7.63;;;5.47;;
67602;SDS011;54417;47.454;18.918;2023-05-07T03:37:14;5.85;;;5.18;;
67602;SDS011;54417;47.454;18.918;2023-05-07T03:42:24;6.30;;;5.13;;
67602;SDS011;54417;47.454;18.918;2023-05-07T03:47:33;7.40;;;5.27;;
67602;SDS011;54417;47.454;18.918;2023-05-07T03:52:42;5.75;;;5.15;;
67602;SDS011;54417;47.454;18.918;2023-05-07T03:57:53;6.88;;;5.55;;
67602;SDS011;54417;47.454;18.918;2023-05-07T04:03:05;7.65;;;5.25;;
67602;SDS011;54417;47.454;18.918;2023-05-07T04:08:15;4.90;;;4.40;;
67602;SDS011;54417;47.454;18.918;2023-05-07T04:13:30;5.47;;;4.90;;
67602;SDS011;54417;47.454;18.918;2023-05-07T04:18:41;6.72;;;4.82;;
67602;SDS011;54417;47.454;18.918;2023-05-07T04:23:50;5.82;;;5.20;;
67602;SDS011;54417;47.454;18.918;2023-05-07T04:29:00;8.13;;;5.18;;
67602;SDS011;54417;47.454;18.918;2023-05-07T04:34:07;5.22;;;4.72;;
67602;SDS011;54417;47.454;18.918;2023-05-07T04:39:11;25.30;;;12.25;;
67602;SDS011;54417;47.454;18.918;2023-05-07T04:44:19;19.33;;;10.45;;
67602;SDS011;54417;47.454;18.918;2023-05-07T04:49:28;7.50;;;4.57;;
67602;SDS011;54417;47.454;18.918;2023-05-07T04:54:38;4.22;;;3.17;;
67602;SDS011;54417;47.454;18.918;2023-05-07T04:59:44;7.30;;;3.33;;
67602;SDS011;54417;47.454;18.918;2023-05-07T05:04:53;3.80;;;3.28;;
67602;SDS011;54417;47.454;18.918;2023-05-07T05:10:03;3.58;;;3.28;;
67602;SDS011;54417;47.454;18.918;2023-05-07T05:15:18;4.57;;;3.22;;
67602;SDS011;54417;47.454;18.918;2023-05-07T05:20:27;3.30;;;3.00;;
67602;SDS011;54417;47.454;18.918;2023-05-07T05:25:36;2.63;;;2.35;;
67602;SDS011;54417;47.454;18.918;2023-05-07T05:30:49;2.75;;;2.55;;
67602;SDS011;54417;47.454;18.918;2023-05-07T05:35:58;5.90;;;2.70;;
67602;SDS011;54417;47.454;18.918;2023-05-07T05:41:07;3.67;;;3.30;;
67602;SDS011;54417;47.454;18.918;2023-05-07T05:46:17;4.85;;;3.75;;
67602;SDS011;54417;47.454;18.918;2023-05-07T05:51:29;5.97;;;3.17;;
67602;SDS011;54417;47.454;18.918;2023-05-07T05:56:39;3.83;;;3.20;;
67602;SDS011;54417;47.454;18.918;2023-05-07T06:01:44;3.63;;;2.95;;
67602;SDS011;54417;47.454;18.918;2023-05-07T06:06:48;5.13;;;3.47;;
67602;SDS011;54417;47.454;18.918;2023-05-07T06:11:57;3.25;;;2.72;;
67602;SDS011;54417;47.454;18.918;2023-05-07T06:17:10;6.65;;;2.90;;
67602;SDS011;54417;47.454;18.918;2023-05-07T06:22:19;4.22;;;2.72;;
67602;SDS011;54417;47.454;18.918;2023-05-07T06:27:28;2.00;;;1.77;;
67602;SDS011;54417;47.454;18.918;2023-05-07T06:32:39;4.32;;;2.33;;
67602;SDS011;54417;47.454;18.918;2023-05-07T06:37:50;2.40;;;2.17;;
67602;SDS011;54417;47.454;18.918;2023-05-07T06:43:02;1.90;;;1.75;;
67602;SDS011;54417;47.454;18.918;2023-05-07T06:48:27;7.43;;;2.67;;
67602;SDS011;54417;47.454;18.918;2023-05-07T06:53:40;2.45;;;1.92;;
67602;SDS011;54417;47.454;18.918;2023-05-07T06:58:46;2.33;;;2.13;;
67602;SDS011;54417;47.454;18.918;2023-05-07T07:03:56;5.03;;;1.88;;
67602;SDS011;54417;47.454;18.918;2023-05-07T07:09:00;4.82;;;2.30;;
67602;SDS011;54417;47.454;18.918;2023-05-07T07:14:10;4.55;;;3.17;;
67602;SDS011;54417;47.454;18.918;2023-05-07T07:19:27;4.63;;;3.08;;
67602;SDS011;54417;47.454;18.918;2023-05-07T07:24:37;4.93;;;2.80;;
67602;SDS011;54417;47.454;18.918;2023-05-07T07:29:43;7.28;;;3.60;;
67602;SDS011;54417;47.454;18.918;2023-05-07T07:34:53;7.10;;;5.45;;
67602;SDS011;54417;47.454;18.918;2023-05-07T07:39:57;9.05;;;5.50;;
67602;SDS011;54417;47.454;18.918;2023-05-07T07:45:06;6.93;;;5.68;;
67602;SDS011;54417;47.454;18.918;2023-05-07T07:50:21;6.47;;;5.75;;
67602;SDS011;54417;47.454;18.918;2023-05-07T07:55:47;7.82;;;7.03;;
67602;SDS011;54417;47.454;18.918;2023-05-07T08:00:59;9.32;;;7.53;;
67602;SDS011;54417;47.454;18.918;2023-05-07T08:06:09;8.38;;;7.47;;
67602;SDS011;54417;47.454;18.918;2023-05-07T08:11:19;8.85;;;7.55;;
67602;SDS011;54417;47.454;18.918;2023-05-07T08:16:28;9.75;;;7.20;;
67602;SDS011;54417;47.454;18.918;2023-05-07T08:21:40;8.63;;;6.45;;
67602;SDS011;54417;47.454;18.918;2023-05-07T08:26:51;8.27;;;6.25;;
67602;SDS011;54417;47.454;18.918;2023-05-07T08:31:56;7.40;;;6.32;;
67602;SDS011;54417;47.454;18.918;2023-05-07T08:37:07;7.23;;;6.43;;
67602;SDS011;54417;47.454;18.918;2023-05-07T08:42:16;8.82;;;5.55;;
67602;SDS011;54417;47.454;18.918;2023-05-07T08:47:21;6.78;;;5.00;;
67602;SDS011;54417;47.454;18.918;2023-05-07T08:52:41;8.13;;;5.00;;
67602;SDS011;54417;47.454;18.918;2023-05-07T08:57:50;7.22;;;4.85;;
67602;SDS011;54417;47.454;18.918;2023-05-07T09:03:00;8.88;;;6.75;;
67602;SDS011;54417;47.454;18.918;2023-05-07T09:08:14;6.80;;;5.78;;
67602;SDS011;54417;47.454;18.918;2023-05-07T09:13:25;6.57;;;5.05;;
67602;SDS011;54417;47.454;18.918;2023-05-07T09:18:32;8.43;;;5.15;;
67602;SDS011;54417;47.454;18.918;2023-05-07T09:23:37;4.30;;;3.90;;
67602;SDS011;54417;47.454;18.918;2023-05-07T09:28:42;4.57;;;3.60;;
67602;SDS011;54417;47.454;18.918;2023-05-07T09:33:54;3.85;;;3.00;;
67602;SDS011;54417;47.454;18.918;2023-05-07T09:39:08;5.18;;;3.05;;
67602;SDS011;54417;47.454;18.918;2023-05-07T09:44:17;4.63;;;3.55;;
67602;SDS011;54417;47.454;18.918;2023-05-07T09:49:29;3.97;;;3.30;;
67602;SDS011;54417;47.454;18.918;2023-05-07T09:54:41;4.50;;;3.10;;
67602;SDS011;54417;47.454;18.918;2023-05-07T09:59:48;4.13;;;3.05;;
67602;SDS011;54417;47.454;18.918;2023-05-07T10:04:59;3.70;;;3.30;;
67602;SDS011;54417;47.454;18.918;2023-05-07T10:10:14;5.78;;;4.63;;
67602;SDS011;54417;47.454;18.918;2023-05-07T10:15:25;5.38;;;4.65;;
67602;SDS011;54417;47.454;18.918;2023-05-07T10:20:36;5.57;;;4.03;;
67602;SDS011;54417;47.454;18.918;2023-05-07T10:25:50;5.68;;;5.07;;
67602;SDS011;54417;47.454;18.918;2023-05-07T10:31:14;8.88;;;4.78;;
67602;SDS011;54417;47.454;18.918;2023-05-07T10:36:31;5.70;;;4.03;;
67602;SDS011;54417;47.454;18.918;2023-05-07T10:41:46;4.78;;;2.83;;
67602;SDS011;54417;47.454;18.918;2023-05-07T10:47:03;3.65;;;2.70;;
67602;SDS011;54417;47.454;18.918;2023-05-07T10:52:13;4.20;;;2.85;;
67602;SDS011;54417;47.454;18.918;2023-05-07T10:57:34;2.47;;;2.28;;
67602;SDS011;54417;47.454;18.918;2023-05-07T11:03:05;2.50;;;2.30;;
67602;SDS011;54417;47.454;18.918;2023-05-07T11:14:10;2.20;;;2.00;;
67602;SDS011;54417;47.454;18.918;2023-05-07T11:25:02;2.60;;;1.80;;
67602;SDS011;54417;47.454;18.918;2023-05-07T11:30:17;2.22;;;2.03;;
67602;SDS011;54417;47.454;18.918;2023-05-07T11:35:27;2.00;;;1.90;;
67602;SDS011;54417;47.454;18.918;2023-05-07T11:40:47;2.22;;;1.90;;
67602;SDS011;54417;47.454;18.918;2023-05-07T11:45:54;2.50;;;2.30;;
67602;SDS011;54417;47.454;18.918;2023-05-07T11:51:03;3.40;;;1.98;;
67602;SDS011;54417;47.454;18.918;2023-05-07T11:56:08;2.17;;;2.03;;
67602;SDS011;54417;47.454;18.918;2023-05-07T12:01:19;4.18;;;2.20;;
67602;SDS011;54417;47.454;18.918;2023-05-07T12:06:28;2.50;;;2.30;;
67602;SDS011;54417;47.454;18.918;2023-05-07T12:11:32;4.05;;;2.05;;
67602;SDS011;54417;47.454;18.918;2023-05-07T12:16:37;3.47;;;2.05;;
67602;SDS011;54417;47.454;18.918;2023-05-07T12:21:48;2.00;;;1.90;;
67602;SDS011;54417;47.454;18.918;2023-05-07T12:26:52;2.30;;;2.10;;
67602;SDS011;54417;47.454;18.918;2023-05-07T12:32:02;2.75;;;2.25;;
67602;SDS011;54417;47.454;18.918;2023-05-07T12:37:13;2.60;;;2.40;;
67602;SDS011;54417;47.454;18.918;2023-05-07T12:42:22;2.63;;;2.00;;
67602;SDS011;54417;47.454;18.918;2023-05-07T12:47:30;2.40;;;1.60;;
67602;SDS011;54417;47.454;18.918;2023-05-07T12:52:39;2.67;;;2.35;;
67602;SDS011;54417;47.454;18.918;2023-05-07T12:57:48;3.57;;;2.40;;
67602;SDS011;54417;47.454;18.918;2023-05-07T13:02:59;6.25;;;2.00;;
67602;SDS011;54417;47.454;18.918;2023-05-07T13:08:09;2.63;;;2.15;;
67602;SDS011;54417;47.454;18.918;2023-05-07T13:13:17;2.90;;;2.30;;
67602;SDS011;54417;47.454;18.918;2023-05-07T13:18:29;2.90;;;2.60;;
67602;SDS011;54417;47.454;18.918;2023-05-07T13:23:34;4.90;;;2.70;;
67602;SDS011;54417;47.454;18.918;2023-05-07T13:28:37;2.90;;;2.17;;
67602;SDS011;54417;47.454;18.918;2023-05-07T13:33:47;3.63;;;2.20;;
67602;SDS011;54417;47.454;18.918;2023-05-07T13:38:56;2.97;;;2.33;;
67602;SDS011;54417;47.454;18.918;2023-05-07T13:44:02;3.78;;;2.50;;
67602;SDS011;54417;47.454;18.918;2023-05-07T13:49:12;3.83;;;2.70;;
67602;SDS011;54417;47.454;18.918;2023-05-07T13:54:21;4.13;;;2.53;;
67602;SDS011;54417;47.454;18.918;2023-05-07T13:59:26;4.03;;;2.80;;
67602;SDS011;54417;47.454;18.918;2023-05-07T14:04:37;4.07;;;2.50;;
67602;SDS011;54417;47.454;18.918;2023-05-07T14:09:45;2.33;;;2.05;;
67602;SDS011;54417;47.454;18.918;2023-05-07T14:14:54;2.72;;;2.28;;
67602;SDS011;54417;47.454;18.918;2023-05-07T14:19:59;3.15;;;2.63;;
67602;SDS011;54417;47.454;18.918;2023-05-07T14:25:04;2.65;;;2.45;;
67602;SDS011;54417;47.454;18.918;2023-05-07T14:30:13;3.28;;;2.58;;
67602;SDS011;54417;47.454;18.918;2023-05-07T14:35:25;4.38;;;2.80;;
67602;SDS011;54417;47.454;18.918;2023-05-07T14:40:34;3.38;;;2.72;;
67602;SDS011;54417;47.454;18.918;2023-05-07T14:45:42;3.38;;;2.80;;
67602;SDS011;54417;47.454;18.918;2023-05-07T14:50:53;2.67;;;2.42;;
67602;SDS011;54417;47.454;18.918;2023-05-07T14:56:02;5.13;;;3.47;;
67602;SDS011;54417;47.454;18.918;2023-05-07T15:01:06;5.38;;;2.95;;
67602;SDS011;54417;47.454;18.918;2023-05-07T15:06:11;8.25;;;3.42;;
67602;SDS011;54417;47.454;18.918;2023-05-07T15:11:20;6.65;;;3.10;;
67602;SDS011;54417;47.454;18.918;2023-05-07T15:16:29;4.20;;;3.60;;
67602;SDS011;54417;47.454;18.918;2023-05-07T15:21:40;3.75;;;3.22;;
67602;SDS011;54417;47.454;18.918;2023-05-07T15:26:48;3.90;;;3.03;;
67602;SDS011;54417;47.454;18.918;2023-05-07T15:31:57;5.85;;;2.88;;
67602;SDS011;54417;47.454;18.918;2023-05-07T15:37:08;3.10;;;2.40;;
67602;SDS011;54417;47.454;18.918;2023-05-07T15:42:11;4.90;;;2.60;;
67602;SDS011;54417;47.454;18.918;2023-05-07T15:47:20;11.00;;;2.25;;
67602;SDS011;54417;47.454;18.918;2023-05-07T15:52:26;3.67;;;2.20;;
67602;SDS011;54417;47.454;18.918;2023-05-07T15:57:35;2.03;;;1.80;;
67602;SDS011;54417;47.454;18.918;2023-05-07T16:02:44;6.03;;;3.35;;
67602;SDS011;54417;47.454;18.918;2023-05-07T16:07:49;6.03;;;2.00;;
67602;SDS011;54417;47.454;18.918;2023-05-07T16:12:53;2.40;;;2.00;;
67602;SDS011;54417;47.454;18.918;2023-05-07T16:18:02;1.85;;;1.70;;
67602;SDS011;54417;47.454;18.918;2023-05-07T16:23:13;2.00;;;1.65;;
67602;SDS011;54417;47.454;18.918;2023-05-07T16:28:22;1.23;;;1.13;;
67602;SDS011;54417;47.454;18.918;2023-05-07T16:33:26;3.17;;;2.40;;
67602;SDS011;54417;47.454;18.918;2023-05-07T16:38:37;5.22;;;2.42;;
67602;SDS011;54417;47.454;18.918;2023-05-07T16:48:54;1.60;;;1.50;;
67602;SDS011;54417;47.454;18.918;2023-05-07T16:54:00;2.20;;;1.40;;
67602;SDS011;54417;47.454;18.918;2023-05-07T16:59:04;12.80;;;7.47;;
67602;SDS011;54417;47.454;18.918;2023-05-07T17:04:13;3.35;;;1.83;;
67602;SDS011;54417;47.454;18.918;2023-05-07T17:09:23;7.72;;;3.35;;
67602;SDS011;54417;47.454;18.918;2023-05-07T17:14:38;5.03;;;3.45;;
67602;SDS011;54417;47.454;18.918;2023-05-07T17:19:42;3.83;;;1.90;;
67602;SDS011;54417;47.454;18.918;2023-05-07T17:24:53;2.43;;;1.73;;
67602;SDS011;54417;47.454;18.918;2023-05-07T17:30:02;3.50;;;1.60;;
67602;SDS011;54417;47.454;18.918;2023-05-07T17:35:11;1.60;;;1.50;;
67602;SDS011;54417;47.454;18.918;2023-05-07T17:40:21;1.60;;;1.50;;
67602;SDS011;54417;47.454;18.918;2023-05-07T17:45:30;4.38;;;1.42;;
67602;SDS011;54417;47.454;18.918;2023-05-07T17:50:39;1.70;;;1.60;;
67602;SDS011;54417;47.454;18.918;2023-05-07T17:55:51;4.72;;;2.00;;
67602;SDS011;54417;47.454;18.918;2023-05-07T18:01:00;13.50;;;2.45;;
67602;SDS011;54417;47.454;18.918;2023-05-07T18:06:08;2.38;;;1.90;;
67602;SDS011;54417;47.454;18.918;2023-05-07T18:11:19;2.22;;;2.03;;
67602;SDS011;54417;47.454;18.918;2023-05-07T18:16:27;2.50;;;2.20;;
67602;SDS011;54417;47.454;18.918;2023-05-07T18:21:36;3.35;;;2.22;;
67602;SDS011;54417;47.454;18.918;2023-05-07T18:26:46;2.67;;;2.38;;
67602;SDS011;54417;47.454;18.918;2023-05-07T18:31:55;2.40;;;2.20;;
67602;SDS011;54417;47.454;18.918;2023-05-07T18:37:04;2.83;;;2.45;;
67602;SDS011;54417;47.454;18.918;2023-05-07T18:42:09;2.78;;;2.50;;
67602;SDS011;54417;47.454;18.918;2023-05-07T18:47:19;3.95;;;2.53;;
67602;SDS011;54417;47.454;18.918;2023-05-07T18:52:30;2.65;;;2.40;;
67602;SDS011;54417;47.454;18.918;2023-05-07T18:57:36;3.80;;;2.70;;
67602;SDS011;54417;47.454;18.918;2023-05-07T19:02:44;3.30;;;2.92;;
67602;SDS011;54417;47.454;18.918;2023-05-07T19:07:48;3.35;;;3.05;;
67602;SDS011;54417;47.454;18.918;2023-05-07T19:12:53;3.35;;;2.95;;
67602;SDS011;54417;47.454;18.918;2023-05-07T19:17:58;5.38;;;3.20;;
67602;SDS011;54417;47.454;18.918;2023-05-07T19:23:02;3.60;;;2.78;;
67602;SDS011;54417;47.454;18.918;2023-05-07T19:28:10;3.75;;;3.10;;
67602;SDS011;54417;47.454;18.918;2023-05-07T19:33:19;4.53;;;3.23;;
67602;SDS011;54417;47.454;18.918;2023-05-07T19:38:27;4.45;;;3.20;;
67602;SDS011;54417;47.454;18.918;2023-05-07T19:43:38;6.10;;;3.42;;
67602;SDS011;54417;47.454;18.918;2023-05-07T19:48:47;4.25;;;3.80;;
67602;SDS011;54417;47.454;18.918;2023-05-07T19:53:56;4.85;;;3.63;;
67602;SDS011;54417;47.454;18.918;2023-05-07T19:59:06;6.68;;;3.92;;
67602;SDS011;54417;47.454;18.918;2023-05-07T20:04:10;7.10;;;3.67;;
67602;SDS011;54417;47.454;18.918;2023-05-07T20:09:14;7.93;;;4.90;;
67602;SDS011;54417;47.454;18.918;2023-05-07T20:14:26;5.10;;;4.10;;
67602;SDS011;54417;47.454;18.918;2023-05-07T20:24:38;6.43;;;4.57;;
67602;SDS011;54417;47.454;18.918;2023-05-07T20:29:48;6.22;;;3.25;;
67602;SDS011;54417;47.454;18.918;2023-05-07T20:34:57;3.57;;;3.20;;
67602;SDS011;54417;47.454;18.918;2023-05-07T20:40:06;3.22;;;2.58;;
67602;SDS011;54417;47.454;18.918;2023-05-07T20:45:13;5.47;;;3.10;;
67602;SDS011;54417;47.454;18.918;2023-05-07T20:50:22;7.18;;;2.75;;
67602;SDS011;54417;47.454;18.918;2023-05-07T20:55:31;5.28;;;3.53;;
67602;SDS011;54417;47.454;18.918;2023-05-07T21:00:37;3.67;;;3.17;;
67602;SDS011;54417;47.454;18.918;2023-05-07T21:05:41;4.60;;;3.38;;
67602;SDS011;54417;47.454;18.918;2023-05-07T21:11:02;5.47;;;3.13;;
67602;SDS011;54417;47.454;18.918;2023-05-07T21:16:08;4.07;;;3.38;;
67602;SDS011;54417;47.454;18.918;2023-05-07T21:21:17;3.72;;;3.03;;
67602;SDS011;54417;47.454;18.918;2023-05-07T21:26:26;3.53;;;3.00;;
67602;SDS011;54417;47.454;18.918;2023-05-07T21:31:31;4.43;;;2.78;;
67602;SDS011;54417;47.454;18.918;2023-05-07T21:36:40;3.20;;;2.83;;
67602;SDS011;54417;47.454;18.918;2023-05-07T21:41:43;5.05;;;2.80;;
67602;SDS011;54417;47.454;18.918;2023-05-07T21:46:54;3.55;;;2.85;;
67602;SDS011;54417;47.454;18.918;2023-05-07T21:52:03;10.98;;;3.85;;
67602;SDS011;54417;47.454;18.918;2023-05-07T21:57:11;3.95;;;3.00;;
67602;SDS011;54417;47.454;18.918;2023-05-07T22:02:22;3.17;;;2.85;;
67602;SDS011;54417;47.454;18.918;2023-05-07T22:07:31;3.77;;;3.03;;
67602;SDS011;54417;47.454;18.918;2023-05-07T22:12:39;6.10;;;2.90;;
67602;SDS011;54417;47.454;18.918;2023-05-07T22:17:45;4.38;;;3.30;;
67602;SDS011;54417;47.454;18.918;2023-05-07T22:22:49;4.18;;;3.33;;
67602;SDS011;54417;47.454;18.918;2023-05-07T22:27:54;5.00;;;3.60;;
67602;SDS011;54417;47.454;18.918;2023-05-07T22:33:04;3.50;;;2.97;;
67602;SDS011;54417;47.454;18.918;2023-05-07T22:38:13;4.13;;;2.63;;
67602;SDS011;54417;47.454;18.918;2023-05-07T22:43:22;3.83;;;3.42;;
67602;SDS011;54417;47.454;18.918;2023-05-07T22:48:32;3.92;;;3.20;;
67602;SDS011;54417;47.454;18.918;2023-05-07T22:53:36;3.63;;;3.20;;
67602;SDS011;54417;47.454;18.918;2023-05-07T22:58:44;6.10;;;3.22;;
67602;SDS011;54417;47.454;18.918;2023-05-07T23:03:56;6.70;;;3.40;;
67602;SDS011;54417;47.454;18.918;2023-05-07T23:14:10;4.47;;;3.47;;
67602;SDS011;54417;47.454;18.918;2023-05-07T23:19:20;5.20;;;3.80;;
67602;SDS011;54417;47.454;18.918;2023-05-07T23:24:24;3.92;;;3.13;;
67602;SDS011;54417;47.454;18.918;2023-05-07T23:29:33;8.98;;;4.18;;
67602;SDS011;54417;47.454;18.918;2023-05-07T23:34:38;6.00;;;3.80;;
67602;SDS011;54417;47.454;18.918;2023-05-07T23:39:51;4.35;;;3.92;;
67602;SDS011;54417;47.454;18.918;2023-05-07T23:44:55;4.78;;;3.72;;
67602;SDS011;54417;47.454;18.918;2023-05-07T23:50:06;4.32;;;3.85;;
67602;SDS011;54417;47.454;18.918;2023-05-07T23:55:15;5.05;;;3.78;;
